Terminal Aerodrome Forecast
Issued by NWS

Home | Current Version | Previous Version | Text Only | Print | Product List | Glossary On
Versions: 1 2 3 4 5 6 7 8 9 10 11 12
000
FTUS46 KHNX 211720
TAFBFL
TAF
KBFL 211720Z 2118/2218 30009KT P6SM SKC
     FM220000 34007KT P6SM SKC
     FM220600 VRB03KT P6SM SKC=

USA.gov is the U.S. government's official web portal to all federal, state and local government web resources and services.